METAR Data
IDs: Format: Raw Decoded Include TAF

Data at: 1228 UTC 16 Jul 2019

KSVC 161215Z AUTO 35008KT 10SM CLR 19/07 A3013 RMK AO2 T01850072
KSVC 161155Z AUTO 35007KT 10SM CLR 20/08 A3013 RMK AO2 T02000075 10234 20181
KSVC 161135Z AUTO 35007KT 10SM CLR 19/08 A3012 RMK AO2 T01930075
KSVC 161115Z AUTO 36009KT 10SM CLR 20/07 A3012 RMK AO2 T01950074
KSVC 161055Z AUTO 34006KT 10SM CLR 20/07 A3011 RMK AO2 T01950072
KSVC 161035Z AUTO 34008KT 10SM CLR 20/08 A3011 RMK AO2 T01990075
KSVC 161015Z AUTO 32006KT 10SM CLR 19/07 A3011 RMK AO2 T01860071
KSVC 160955Z AUTO 34005KT 10SM CLR 19/07 A3011 RMK AO2 T01870072
KSVC 160935Z AUTO 35009KT 10SM CLR 19/07 A3011 RMK AO2 T01890072
KSVC 160915Z AUTO 34008KT 10SM CLR 20/07 A3011 RMK AO2 T02000073
KSVC 160855Z AUTO 35004KT 10SM CLR 20/07 A3011 RMK AO2 T02010072
KSVC 160835Z AUTO 35007KT 10SM CLR 21/08 A3012 RMK AO2 T02100075
KSVC 160755Z AUTO 32006KT 10SM CLR 22/07 A3013 RMK AO2 T02180074
KSVC 160735Z AUTO 03010KT 10SM CLR 22/08 A3013 RMK AO2 T02180075
KSVC 160715Z AUTO 31007KT 10SM CLR 21/07 A3014 RMK AO2 T02120072
KSVC 160655Z AUTO 33006KT 10SM CLR 21/07 A3014 RMK AO2 T02060069 403580173
KSVC 160635Z AUTO 31005KT 10SM CLR 22/07 A3014 RMK AO2 T02230073
KSVC 160615Z AUTO 31003KT 10SM CLR 22/07 A3014 RMK AO2 T02240074
KSVC 160555Z AUTO 35006KT 10SM CLR 23/08 A3014 RMK AO2 T02270077 10336 20227
KSVC 160535Z AUTO 33007KT 10SM CLR 24/08 A3014 RMK AO2 T02350078
KSVC 160515Z AUTO 32008KT 10SM CLR 24/08 A3014 RMK AO2 T02370075
KSVC 160455Z AUTO 29009KT 10SM SCT120 25/08 A3014 RMK AO2 T02450080
KSVC 160435Z AUTO 30009KT 10SM CLR 25/08 A3013 RMK AO2 T02490080
KSVC 160415Z AUTO 28010KT 10SM CLR 25/08 A3013 RMK AO2 T02490081
KSVC 160355Z AUTO 31005KT 10SM SCT120 25/08 A3013 RMK AO2 T02460077
KSVC 160335Z AUTO 30006KT 10SM SCT120 26/08 A3012 RMK AO2 T02580079
KSVC 160315Z AUTO 36006KT 10SM SCT120 27/08 A3012 RMK AO2 T02650076
KSVC 160255Z AUTO 36009KT 10SM SCT120 27/08 A3011 RMK AO2 T02730077
KSVC 160235Z AUTO 32009KT 10SM SCT120 27/08 A3010 RMK AO2 T02710081
KSVC 160215Z AUTO 32010G13KT 10SM CLR 28/08 A3010 RMK AO2 T02790081
KSVC 160155Z AUTO 33014KT 10SM CLR 29/08 A3010 RMK AO2 T02850081
KSVC 160135Z AUTO 33016KT 10SM CLR 29/08 A3009 RMK AO2 T02900080
KSVC 160115Z AUTO 32020KT 10SM CLR 31/08 A3009 RMK AO2 T03060077
KSVC 160055Z AUTO 29020G27KT 10SM CLR 31/08 A3008 RMK AO2 T03080081
KSVC 160035Z AUTO 29018G24KT 10SM CLR 33/04 A3008 RMK AO2 T03310039
KSVC 160015Z AUTO 23005KT 10SM CLR 33/04 A3008 RMK AO2 T03340035
KSVC 152355Z AUTO 23006KT 10SM CLR 34/04 A3008 RMK AO2 T03370039 10358 20317
KSVC 152335Z AUTO 21004KT 10SM CLR 34/05 A3008 RMK AO2 LTG DSNT SW T03370046
KSVC 152315Z AUTO 20007KT 10SM CLR 34/05 A3008 RMK AO2 T03370050
KSVC 152255Z AUTO 23006KT 10SM VCTS CLR 34/05 A3009 RMK AO2 T03380054
KSVC 152235Z AUTO 25007KT 10SM CLR 34/05 A3010 RMK AO2 T03390051
KSVC 152215Z AUTO 25011KT 10SM CLR 35/06 A3010 RMK AO2 LTG DSNT NW T03530060
KSVC 152155Z AUTO 26012G20KT 10SM SCT110 35/07 A3011 RMK AO2 LTG DSNT NE AND SW T03480067
KSVC 152135Z AUTO 26017G22KT 10SM BKN110 35/07 A3011 RMK AO2 LTG DSNT NW T03470070
KSVC 152115Z AUTO 25003G15KT 10SM SCT110 35/06 A3011 RMK AO2 LTG DSNT N T03490060
KSVC 152035Z AUTO 14006KT 10SM CLR 34/06 A3014 RMK AO2 LTG DSNT W T03390059
KSVC 152015Z AUTO 18008KT 130V210 10SM CLR 34/06 A3014 RMK AO2 T03380062
KSVC 151955Z AUTO 10003KT 10SM CLR 34/06 A3015 RMK AO2 LTG DSNT N T03370063
KSVC 151935Z AUTO 20006KT 10SM CLR 35/07 A3015 RMK AO2 LTG DSNT NE T03450068
KSVC 151915Z AUTO 21005KT 10SM CLR 33/07 A3016 RMK AO2 T03270068
KSVC 151855Z AUTO 21005KT 10SM CLR 33/07 A3017 RMK AO2 T03270068
KSVC 151835Z AUTO 19003KT 10SM CLR 33/07 A3018 RMK AO2 T03250072
KSVC 151815Z AUTO 14007KT 10SM CLR 32/07 A3019 RMK AO2 T03210073
KSVC 151755Z AUTO 15009KT 10SM CLR 32/08 A3019 RMK AO2 T03220077 10329 20173
KSVC 151735Z AUTO 15009KT 10SM CLR 33/08 A3019 RMK AO2 T03280080
KSVC 151715Z AUTO 11006KT 10SM CLR 32/08 A3019 RMK AO2 T03160075
KSVC 151655Z AUTO 00000KT 10SM CLR 31/07 A3020 RMK AO2 T03090072
KSVC 151635Z AUTO 14009KT 10SM CLR 31/08 A3021 RMK AO2 T03080075
KSVC 151615Z AUTO 14007KT 10SM CLR 30/08 A3020 RMK AO2 T03000076
KSVC 151555Z AUTO 10008KT 10SM CLR 30/08 A3020 RMK AO2 T03020075
KSVC 151535Z AUTO 09003KT 10SM CLR 30/08 A3020 RMK AO2 T02950076
KSVC 151515Z AUTO 00000KT 10SM CLR 28/08 A3021 RMK AO2 T02830076
KSVC 151455Z AUTO 00000KT 10SM CLR 27/07 A3021 RMK AO2 T02720074
KSVC 151435Z AUTO 30003KT 10SM CLR 27/08 A3021 RMK AO2 T02650076
KSVC 151415Z AUTO 29007KT 10SM CLR 24/08 A3021 RMK AO2 T02440079
KSVC 151355Z AUTO 31007KT 10SM CLR 24/08 A3021 RMK AO2 T02360080
KSVC 151335Z AUTO 33005KT 10SM CLR 23/08 A3020 RMK AO2 T02300081
KSVC 151315Z AUTO 33007KT 10SM CLR 22/08 A3020 RMK AO2 T02160082
KSVC 151255Z AUTO 31009KT 10SM CLR 21/08 A3019 RMK AO2 T02070075
KSVC 151235Z AUTO 30009KT 10SM CLR 19/07 A3019 RMK AO2 T01860066
KSVC 151215Z AUTO 30006KT 10SM CLR 17/07 A3019 RMK AO2 T01740066
KSVC 151155Z AUTO 32005KT 10SM CLR 19/07 A3018 RMK AO2 T01880070 10225 20181
KSVC 151135Z AUTO 33006KT 10SM CLR 19/07 A3018 RMK AO2 T01870070
KSVC 151115Z AUTO 35006KT 10SM CLR 18/07 A3018 RMK AO2 T01820066
KSVC 151055Z AUTO 02003KT 10SM CLR 20/07 A3018 RMK AO2 T01980069
KSVC 151035Z AUTO 04006KT 10SM CLR 20/07 A3018 RMK AO2 T01980068
KSVC 151015Z AUTO 01007KT 10SM CLR 21/07 A3018 RMK AO2 T02050070
KSVC 150955Z AUTO 35007KT 10SM CLR 20/07 A3018 RMK AO2 T02010067
KSVC 150935Z AUTO 31009KT 10SM CLR 21/07 A3018 RMK AO2 T02060068
KSVC 150915Z AUTO 33010KT 10SM CLR 21/07 A3018 RMK AO2 T02120068
KSVC 150855Z AUTO 34011KT 10SM CLR 22/07 A3018 RMK AO2 T02150068
KSVC 150835Z AUTO 35013KT 10SM CLR 22/07 A3019 RMK AO2 T02170067
KSVC 150815Z AUTO 34009KT 10SM CLR 23/07 A3020 RMK AO2 T02250071
KSVC 150755Z AUTO 33009KT 10SM CLR 22/07 A3020 RMK AO2 T02200070
KSVC 150735Z AUTO 32011KT 10SM CLR 22/07 A3020 RMK AO2 T02210068
KSVC 150715Z AUTO 30009G14KT 10SM CLR 21/07 A3020 RMK AO2 T02100071
KSVC 150655Z AUTO 34008KT 10SM CLR 21/07 A3020 RMK AO2 T02100071 403480177
KSVC 150635Z AUTO 35008KT 10SM CLR 21/07 A3020 RMK AO2 T02110070
KSVC 150615Z AUTO 36009KT 10SM CLR 22/07 A3020 RMK AO2 T02150071
KSVC 150555Z AUTO 35009KT 10SM CLR 20/07 A3021 RMK AO2 T02030065 10321 20194
KSVC 150535Z AUTO 33006KT 10SM CLR 20/06 A3021 RMK AO2 T02000058
KSVC 150515Z AUTO 30004KT 10SM CLR 19/05 A3021 RMK AO2 T01940054
KSVC 150455Z AUTO 00000KT 10SM CLR 23/06 A3022 RMK AO2 T02260063
KSVC 150435Z AUTO 00000KT 10SM CLR 24/07 A3023 RMK AO2 T02400072
KSVC 150415Z AUTO 17006KT 10SM CLR 24/07 A3023 RMK AO2 T02410067
KSVC 150355Z AUTO 36005KT 10SM CLR 24/07 A3020 RMK AO2 T02390069
KSVC 150335Z AUTO 36005KT 10SM CLR 25/07 A3019 RMK AO2 LTG DSNT SE T02510072
KSVC 150315Z AUTO 04006KT 10SM CLR 26/08 A3019 RMK AO2 T02570076
KSVC 150255Z AUTO 06012G17KT 10SM CLR 26/08 A3018 RMK AO2 T02570080
KSVC 150235Z AUTO 08013KT 10SM CLR 26/08 A3019 RMK AO2 T02560079
KSVC 150215Z AUTO 35011KT 10SM CLR 26/07 A3016 RMK AO2 T02610068
KSVC 150155Z AUTO 34010KT 10SM CLR 27/07 A3016 RMK AO2 LTG DSNT E T02660071
KSVC 150115Z AUTO 34018G23KT 10SM CLR 29/07 A3016 RMK AO2 T02900071
KSVC 150055Z AUTO 34021G24KT 10SM CLR 30/07 A3016 RMK AO2 T02960072
KSVC 150035Z AUTO 34021KT 10SM CLR 30/07 A3016 RMK AO2 T03030071